createdAt,value
2022-10-22T00:03:16.528Z,91.44
2022-10-22T00:08:18.220Z,91.54
2022-10-22T00:13:20.735Z,91.30
2022-10-22T00:18:22.306Z,91.51
2022-10-22T00:23:23.965Z,91.56
2022-10-22T00:28:25.748Z,91.56
2022-10-22T00:33:28.786Z,91.86
2022-10-22T00:38:30.429Z,91.65
2022-10-22T00:43:32.579Z,91.89
2022-10-22T00:48:34.240Z,91.04
2022-10-22T00:53:39.686Z,90.73
2022-10-22T00:58:47.664Z,90.25
2022-10-22T01:03:50.425Z,90.32
2022-10-22T01:09:01.412Z,90.09
2022-10-22T01:15:00.029Z,89.87
2022-10-22T01:20:24.170Z,89.87
2022-10-22T01:25:37.276Z,90.66
2022-10-22T01:30:40.792Z,90.60
2022-10-22T01:35:45.100Z,90.38
2022-10-22T01:40:47.688Z,90.54
2022-10-22T01:45:54.323Z,89.78
2022-10-22T01:50:58.597Z,90.10
2022-10-22T01:56:22.553Z,89.47
2022-10-22T02:01:33.200Z,89.20
2022-10-22T02:06:38.744Z,89.13
2022-10-22T02:11:41.866Z,89.23
2022-10-22T02:16:45.579Z,88.66
2022-10-22T02:21:47.269Z,89.15
2022-10-22T02:27:00.487Z,90.01
2022-10-22T02:32:05.912Z,89.85
2022-10-22T02:37:08.767Z,89.61
2022-10-22T02:42:12.202Z,90.29
2022-10-22T02:47:13.809Z,90.60
2022-10-22T02:52:15.380Z,90.49
2022-10-22T02:57:17.147Z,90.42
2022-10-22T03:02:18.750Z,89.96
2022-10-22T03:07:20.418Z,90.31
2022-10-22T03:12:22.122Z,90.06
2022-10-22T03:17:23.673Z,90.36
2022-10-22T03:22:29.075Z,89.84
2022-10-22T03:27:30.690Z,89.73
2022-10-22T03:32:32.286Z,89.91
2022-10-22T03:37:34.757Z,91.02
2022-10-22T03:42:36.313Z,90.61
2022-10-22T03:47:38.233Z,90.08
2022-10-22T03:52:40.825Z,90.96
2022-10-22T03:57:42.536Z,90.66
2022-10-22T04:02:44.251Z,91.29
2022-10-22T04:07:45.856Z,91.85
2022-10-22T04:12:48.782Z,91.39
2022-10-22T04:17:50.348Z,91.44
2022-10-22T04:22:51.984Z,91.46
2022-10-22T04:27:53.555Z,90.86
2022-10-22T04:32:55.152Z,90.74
2022-10-22T04:37:56.876Z,90.79
2022-10-22T04:42:58.907Z,90.56
2022-10-22T04:48:00.486Z,90.85
2022-10-22T04:53:02.028Z,91.15
2022-10-22T04:58:03.749Z,91.44
2022-10-22T05:03:05.837Z,91.49
2022-10-22T05:08:07.380Z,90.99
2022-10-22T05:13:08.927Z,91.14
2022-10-22T05:18:10.487Z,91.43
2022-10-22T05:23:12.045Z,91.34
2022-10-22T05:28:13.603Z,91.66
2022-10-22T05:33:15.174Z,91.64
2022-10-22T05:38:17.932Z,92.08
2022-10-22T05:43:19.536Z,92.41
2022-10-22T05:48:21.166Z,92.55
2022-10-22T05:53:22.930Z,92.64
2022-10-22T05:58:24.464Z,92.66
2022-10-22T06:03:26.037Z,92.96
2022-10-22T06:08:28.997Z,93.21
2022-10-22T06:13:32.820Z,93.39
2022-10-22T06:18:34.653Z,93.09
2022-10-22T06:23:37.534Z,93.10
2022-10-22T06:28:39.308Z,93.12
2022-10-22T06:33:43.848Z,93.21
2022-10-22T06:38:45.858Z,93.64
2022-10-22T06:43:47.541Z,93.84
2022-10-22T06:48:59.295Z,93.96
2022-10-22T06:54:00.917Z,94.19
2022-10-22T06:59:03.178Z,94.01
2022-10-22T07:04:05.720Z,94.54
2022-10-22T07:09:07.547Z,94.49
2022-10-22T07:14:10.164Z,94.12
2022-10-22T07:19:12.011Z,93.88
2022-10-22T07:24:13.615Z,93.52
2022-10-22T07:29:18.028Z,93.16
2022-10-22T07:39:22.107Z,92.61
2022-10-22T07:44:23.655Z,92.62
2022-10-22T07:49:25.284Z,92.75
2022-10-22T07:54:26.918Z,92.88
2022-10-22T07:59:28.533Z,93.08
2022-10-22T08:04:30.084Z,93.44
2022-10-22T08:09:32.014Z,93.74
2022-10-22T08:14:33.571Z,93.89
2022-10-22T08:19:35.510Z,94.42
2022-10-22T08:24:37.099Z,94.30
2022-10-22T08:29:38.893Z,94.71
2022-10-22T08:34:40.519Z,94.75
2022-10-22T08:39:42.067Z,95.13
2022-10-22T08:44:52.483Z,95.33
2022-10-22T08:49:55.552Z,95.33
2022-10-22T08:54:59.840Z,95.38
2022-10-22T09:00:15.341Z,95.49
2022-10-22T09:05:58.208Z,95.53
2022-10-22T09:11:32.616Z,95.52
2022-10-22T09:16:39.234Z,95.78
2022-10-22T09:22:05.382Z,95.78
2022-10-22T09:27:25.680Z,95.96
2022-10-22T09:32:28.560Z,95.54
2022-10-22T09:37:30.256Z,95.28
2022-10-22T09:42:33.649Z,95.36
2022-10-22T09:53:25.014Z,95.60
2022-10-22T09:58:27.494Z,95.78
2022-10-22T10:03:35.425Z,95.87
2022-10-22T10:08:37.117Z,95.49
2022-10-22T10:13:41.537Z,95.17
2022-10-22T10:19:04.849Z,95.11
2022-10-22T10:24:14.481Z,95.35
2022-10-22T10:29:45.984Z,94.90
2022-10-22T10:35:19.472Z,94.42
2022-10-22T10:40:42.654Z,93.50
2022-10-22T10:46:05.442Z,91.78
2022-10-22T10:51:37.995Z,91.82
2022-10-22T10:56:48.195Z,92.84
2022-10-22T11:02:40.566Z,94.00
2022-10-22T11:07:52.115Z,95.50
2022-10-22T11:13:03.349Z,96.01
2022-10-22T11:18:35.584Z,96.79
2022-10-22T11:23:44.228Z,97.16
2022-10-22T11:28:52.659Z,97.67
2022-10-22T11:34:33.394Z,97.52
2022-10-22T11:39:35.622Z,96.88
2022-10-22T11:45:02.251Z,97.12
2022-10-22T11:50:03.869Z,96.86
2022-10-22T11:55:31.729Z,95.95
2022-10-22T12:00:40.469Z,96.22
2022-10-22T12:05:42.083Z,96.34
2022-10-22T12:10:57.579Z,96.66
2022-10-22T12:16:03.755Z,96.16
2022-10-22T12:21:05.546Z,95.77
2022-10-22T12:26:23.266Z,95.55
2022-10-22T12:31:25.187Z,94.23
2022-10-22T12:36:28.716Z,93.56
2022-10-22T12:41:35.479Z,94.16
2022-10-22T12:46:37.059Z,94.23
2022-10-22T12:51:38.690Z,94.49
2022-10-22T12:56:40.519Z,94.84
2022-10-22T13:01:43.622Z,95.37
2022-10-22T13:07:04.957Z,95.21
2022-10-22T13:12:08.583Z,96.08
2022-10-22T13:17:23.896Z,96.09
2022-10-22T13:22:31.736Z,96.82
2022-10-22T13:27:33.398Z,98.13
2022-10-22T13:32:35.094Z,99.19
2022-10-22T13:37:38.723Z,100.00
2022-10-22T13:42:40.735Z,100.00
2022-10-22T13:47:46.433Z,100.00
2022-10-22T13:52:54.441Z,100.00
2022-10-22T13:58:14.148Z,100.00
2022-10-22T14:03:19.398Z,100.00
2022-10-22T14:08:23.132Z,100.00
2022-10-22T14:13:24.774Z,100.00
2022-10-22T14:18:31.484Z,100.00
2022-10-22T14:23:35.144Z,100.00
2022-10-22T14:28:41.364Z,100.00
2022-10-22T14:33:53.768Z,100.00
2022-10-22T14:38:55.377Z,100.00
2022-10-22T14:43:57.104Z,100.00
2022-10-22T14:48:58.664Z,100.00
2022-10-22T14:54:00.270Z,100.00
2022-10-22T14:59:01.830Z,100.00
2022-10-22T15:04:03.504Z,100.00
2022-10-22T15:09:05.172Z,100.00
2022-10-22T15:14:06.868Z,100.00
2022-10-22T15:19:08.485Z,100.00
2022-10-22T15:24:10.096Z,100.00
2022-10-22T15:29:12.181Z,100.00
2022-10-22T15:34:18.011Z,100.00
2022-10-22T15:39:19.584Z,100.00
2022-10-22T15:44:24.584Z,100.00
2022-10-22T15:49:28.140Z,100.00
2022-10-22T15:54:31.562Z,100.00
2022-10-22T15:59:33.190Z,100.00
2022-10-22T16:04:34.793Z,100.00
2022-10-22T16:09:36.364Z,100.00
2022-10-22T16:14:37.986Z,100.00
2022-10-22T16:19:39.542Z,100.00
2022-10-22T16:24:41.222Z,100.00
2022-10-22T16:29:42.778Z,100.00
2022-10-22T16:34:44.341Z,100.00
2022-10-22T16:39:46.231Z,100.00
2022-10-22T16:44:47.965Z,100.00
2022-10-22T16:49:49.544Z,100.00
2022-10-22T16:54:51.091Z,100.00
2022-10-22T16:59:52.836Z,100.00
2022-10-22T17:04:54.384Z,100.00
2022-10-22T17:09:55.936Z,100.00
2022-10-22T17:14:57.489Z,100.00
2022-10-22T17:19:59.273Z,100.00
2022-10-22T17:25:11.755Z,100.00
2022-10-22T17:30:20.943Z,100.00
2022-10-22T17:35:25.087Z,100.00
2022-10-22T17:40:27.100Z,100.00
2022-10-22T17:45:28.725Z,100.00
2022-10-22T17:50:30.434Z,100.00
2022-10-22T17:55:34.733Z,100.00
2022-10-22T18:00:36.376Z,100.00
2022-10-22T18:05:37.921Z,100.00
2022-10-22T18:10:40.438Z,100.00
2022-10-22T18:15:41.990Z,100.00
2022-10-22T18:20:48.981Z,100.00
2022-10-22T18:25:50.928Z,100.00
2022-10-22T18:30:52.574Z,100.00
2022-10-22T18:35:54.214Z,100.00
2022-10-22T18:40:55.767Z,100.00
2022-10-22T18:45:57.736Z,100.00
2022-10-22T18:51:04.463Z,100.00
2022-10-22T18:56:07.832Z,100.00
2022-10-22T19:01:21.195Z,100.00
2022-10-22T19:06:34.333Z,100.00
2022-10-22T19:11:38.422Z,100.00
2022-10-22T19:16:40.032Z,100.00
2022-10-22T19:21:41.690Z,100.00
2022-10-22T19:26:43.699Z,100.00
2022-10-22T19:31:45.959Z,100.00
2022-10-22T19:36:47.552Z,100.00
2022-10-22T19:41:49.274Z,100.00
2022-10-22T19:46:50.903Z,100.00
2022-10-22T19:51:52.682Z,100.00
2022-10-22T19:56:54.414Z,100.00
2022-10-22T20:01:56.095Z,100.00
2022-10-22T20:06:57.893Z,100.00
2022-10-22T20:11:59.524Z,100.00
2022-10-22T20:17:01.171Z,100.00
2022-10-22T20:22:02.925Z,100.00
2022-10-22T20:27:04.527Z,100.00
2022-10-22T20:32:08.097Z,100.00
2022-10-22T20:37:10.561Z,100.00
2022-10-22T20:42:12.107Z,100.00
2022-10-22T20:47:13.744Z,100.00
2022-10-22T20:52:15.317Z,100.00
2022-10-22T20:57:16.932Z,100.00
2022-10-22T21:02:18.583Z,100.00
2022-10-22T21:07:20.134Z,100.00
2022-10-22T21:12:21.696Z,100.00
2022-10-22T21:17:23.332Z,100.00
2022-10-22T21:22:24.860Z,100.00
2022-10-22T21:27:26.511Z,100.00
2022-10-22T21:32:28.426Z,100.00
2022-10-22T21:37:30.235Z,100.00
2022-10-22T21:42:31.816Z,100.00
2022-10-22T21:47:33.412Z,100.00
2022-10-22T21:52:34.999Z,100.00
2022-10-22T21:57:36.820Z,100.00
2022-10-22T22:02:38.462Z,100.00
2022-10-22T22:07:40.239Z,100.00
2022-10-22T22:12:42.005Z,100.00
2022-10-22T22:17:43.733Z,100.00
2022-10-22T22:22:45.297Z,100.00
2022-10-22T22:27:46.863Z,100.00
2022-10-22T22:32:48.430Z,99.58
2022-10-22T22:37:49.971Z,99.68
2022-10-22T22:42:51.521Z,99.56
2022-10-22T22:47:53.055Z,99.39
2022-10-22T22:52:54.593Z,99.72
2022-10-22T22:57:56.621Z,99.41
2022-10-22T23:02:58.217Z,99.38
2022-10-22T23:08:00.408Z,99.36
2022-10-22T23:13:02.008Z,99.09
2022-10-22T23:18:03.683Z,99.23
2022-10-22T23:23:08.112Z,99.45
2022-10-22T23:28:09.676Z,99.45
2022-10-22T23:33:11.742Z,99.24
2022-10-22T23:38:13.404Z,99.23
2022-10-22T23:43:14.973Z,99.17
2022-10-22T23:48:16.574Z,99.20
2022-10-22T23:53:18.219Z,98.83
2022-10-22T23:58:19.833Z,98.90
